createdAt,value
2023-03-22T00:04:24.853Z,33.76
2023-03-22T00:09:39.707Z,33.85
2023-03-22T00:14:50.784Z,34.00
2023-03-22T00:19:58.347Z,34.08
2023-03-22T00:25:06.061Z,34.32
2023-03-22T00:30:13.550Z,34.48
2023-03-22T00:35:20.956Z,34.43
2023-03-22T00:40:28.339Z,34.45
2023-03-22T00:45:36.547Z,34.55
2023-03-22T00:50:46.892Z,34.67
2023-03-22T00:55:59.507Z,34.77
2023-03-22T01:01:07.153Z,34.95
2023-03-22T01:06:14.651Z,35.07
2023-03-22T01:11:26.950Z,35.13
2023-03-22T01:16:34.435Z,35.24
2023-03-22T01:22:03.203Z,35.36
2023-03-22T01:26:54.782Z,35.45
2023-03-22T01:32:09.908Z,35.39
2023-03-22T01:37:15.127Z,35.45
2023-03-22T01:42:22.391Z,35.41
2023-03-22T01:47:29.662Z,35.29
2023-03-22T01:52:37.123Z,35.08
2023-03-22T01:57:44.460Z,35.36
2023-03-22T02:02:51.770Z,34.97
2023-03-22T02:07:59.113Z,35.16
2023-03-22T02:13:06.461Z,35.26
2023-03-22T02:18:13.825Z,35.36
2023-03-22T02:23:21.279Z,35.34
2023-03-22T02:28:28.578Z,35.23
2023-03-22T02:33:35.982Z,35.31
2023-03-22T02:38:43.610Z,35.55
2023-03-22T02:43:50.947Z,35.65
2023-03-22T02:48:58.263Z,35.65
2023-03-22T02:54:06.198Z,35.68
2023-03-22T02:59:12.935Z,35.81
2023-03-22T03:04:20.217Z,35.90
2023-03-22T03:09:27.596Z,35.95
2023-03-22T03:14:34.925Z,36.05
2023-03-22T03:19:42.182Z,36.09
2023-03-22T03:24:49.469Z,36.13
2023-03-22T03:29:56.632Z,36.18
2023-03-22T03:35:03.853Z,36.28
2023-03-22T03:40:11.112Z,36.46
2023-03-22T03:45:18.271Z,36.46
2023-03-22T03:50:25.462Z,36.51
2023-03-22T03:55:32.675Z,36.51
2023-03-22T04:00:40.217Z,36.67
2023-03-22T04:05:47.184Z,36.75
2023-03-22T04:10:54.558Z,36.93
2023-03-22T04:16:02.126Z,37.07
2023-03-22T04:21:09.578Z,37.09
2023-03-22T04:26:17.117Z,37.03
2023-03-22T04:31:25.894Z,37.02
2023-03-22T04:36:33.175Z,37.06
2023-03-22T04:41:40.770Z,37.07
2023-03-22T04:46:48.211Z,37.06
2023-03-22T04:51:55.714Z,36.98
2023-03-22T04:57:03.084Z,36.96
2023-03-22T05:02:10.634Z,37.02
2023-03-22T05:07:18.186Z,37.06
2023-03-22T05:12:25.826Z,37.00
2023-03-22T05:17:33.114Z,36.90
2023-03-22T05:22:40.662Z,36.70
2023-03-22T05:27:47.755Z,36.43
2023-03-22T05:32:54.904Z,36.26
2023-03-22T05:38:02.086Z,36.19
2023-03-22T05:43:09.306Z,36.10
2023-03-22T05:48:16.544Z,36.13
2023-03-22T05:53:23.849Z,36.29
2023-03-22T05:58:31.154Z,36.48
2023-03-22T06:03:38.496Z,36.68
2023-03-22T06:08:46.346Z,36.79
2023-03-22T06:13:53.745Z,36.94
2023-03-22T06:19:05.838Z,37.03
2023-03-22T06:24:13.215Z,37.08
2023-03-22T06:29:20.797Z,37.17
2023-03-22T06:34:28.148Z,37.22
2023-03-22T06:39:35.663Z,37.38
2023-03-22T06:44:42.988Z,37.29
2023-03-22T06:49:50.265Z,36.82
2023-03-22T06:54:57.603Z,36.31
2023-03-22T07:00:05.163Z,36.13
2023-03-22T07:05:12.362Z,36.12
2023-03-22T07:10:19.629Z,36.11
2023-03-22T07:15:26.931Z,36.13
2023-03-22T07:20:34.211Z,36.25
2023-03-22T07:25:41.547Z,36.38
2023-03-22T07:30:48.815Z,36.38
2023-03-22T07:35:56.278Z,36.51
2023-03-22T07:41:03.619Z,36.42
2023-03-22T07:46:11.074Z,36.49
2023-03-22T07:51:18.262Z,36.62
2023-03-22T07:56:25.536Z,36.58
2023-03-22T08:01:32.864Z,36.72
2023-03-22T08:06:40.086Z,36.69
2023-03-22T08:11:47.379Z,36.58
2023-03-22T08:16:54.912Z,36.59
2023-03-22T08:22:02.126Z,36.59
2023-03-22T08:27:09.381Z,36.60
2023-03-22T08:32:16.758Z,36.51
2023-03-22T08:37:24.035Z,36.50
2023-03-22T08:42:31.296Z,36.46
2023-03-22T08:47:38.568Z,36.48
2023-03-22T08:52:45.797Z,36.51
2023-03-22T08:57:53.005Z,36.48
2023-03-22T09:03:00.205Z,36.51
2023-03-22T09:08:07.399Z,36.53
2023-03-22T09:13:14.555Z,36.48
2023-03-22T09:18:21.755Z,36.64
2023-03-22T09:23:28.952Z,36.61
2023-03-22T09:28:36.246Z,36.42
2023-03-22T09:33:43.332Z,36.32
2023-03-22T09:38:50.527Z,37.09
2023-03-22T09:43:57.915Z,37.19
2023-03-22T09:49:05.304Z,36.80
2023-03-22T09:54:12.538Z,36.19
2023-03-22T09:59:19.795Z,36.50
2023-03-22T10:04:27.036Z,36.45
2023-03-22T10:09:34.174Z,36.51
2023-03-22T10:14:41.422Z,36.43
2023-03-22T10:19:48.688Z,36.68
2023-03-22T10:24:55.831Z,36.50
2023-03-22T10:30:03.022Z,36.31
2023-03-22T10:35:10.246Z,36.19
2023-03-22T10:40:17.407Z,36.50
2023-03-22T10:45:24.622Z,36.81
2023-03-22T10:50:31.807Z,36.45
2023-03-22T10:55:39.377Z,36.51
2023-03-22T11:00:46.369Z,36.74
2023-03-22T11:05:53.471Z,36.41
2023-03-22T11:11:00.865Z,36.52
2023-03-22T11:16:08.173Z,36.20
2023-03-22T11:21:15.336Z,36.93
2023-03-22T11:26:22.499Z,36.32
2023-03-22T11:31:29.778Z,36.22
2023-03-22T11:36:37.089Z,35.36
2023-03-22T11:41:44.444Z,37.03
2023-03-22T11:46:51.740Z,37.42
2023-03-22T11:51:59.046Z,37.38
2023-03-22T11:57:06.353Z,36.61
2023-03-22T12:02:13.821Z,37.58
2023-03-22T12:07:20.996Z,37.69
2023-03-22T12:12:28.132Z,37.16
2023-03-22T12:17:35.534Z,37.25
2023-03-22T12:22:42.729Z,37.83
2023-03-22T12:27:49.991Z,37.42
2023-03-22T12:32:57.268Z,37.70
2023-03-22T12:38:04.528Z,37.80
2023-03-22T12:43:11.748Z,37.63
2023-03-22T12:48:19.137Z,37.93
2023-03-22T12:53:26.282Z,37.96
2023-03-22T12:58:33.398Z,38.45
2023-03-22T13:03:40.775Z,38.79
2023-03-22T13:08:47.998Z,38.80
2023-03-22T13:13:55.200Z,39.13
2023-03-22T13:19:02.453Z,39.00
2023-03-22T13:24:09.830Z,39.31
2023-03-22T13:29:17.026Z,39.55
2023-03-22T13:34:24.310Z,39.29
2023-03-22T13:39:31.660Z,39.26
2023-03-22T13:44:38.789Z,39.36
2023-03-22T13:49:46.061Z,39.85
2023-03-22T13:54:53.402Z,39.37
2023-03-22T14:00:10.343Z,39.01
2023-03-22T14:05:07.910Z,39.65
2023-03-22T14:10:15.231Z,39.49
2023-03-22T14:15:22.555Z,39.57
2023-03-22T14:20:29.770Z,39.12
2023-03-22T14:45:50.800Z,38.93
2023-03-22T14:50:58.111Z,39.12
2023-03-22T14:56:05.296Z,38.78
2023-03-22T15:01:12.503Z,38.90
2023-03-22T15:06:19.650Z,38.93
2023-03-22T15:11:26.844Z,38.80
2023-03-22T15:16:34.068Z,38.80
2023-03-22T15:21:41.281Z,38.90
2023-03-22T15:26:48.499Z,38.71
2023-03-22T15:31:55.792Z,38.77
2023-03-22T15:37:02.871Z,38.51
2023-03-22T15:42:10.046Z,38.32
2023-03-22T15:47:17.268Z,38.32
2023-03-22T15:52:24.441Z,37.93
2023-03-22T15:57:31.734Z,38.06
2023-03-22T16:02:39.031Z,37.97
2023-03-22T16:07:46.302Z,37.71
2023-03-22T16:12:53.613Z,37.76
2023-03-22T16:18:00.917Z,37.77
2023-03-22T16:23:08.205Z,37.52
2023-03-22T16:28:15.532Z,37.61
2023-03-22T16:33:22.837Z,37.65
2023-03-22T16:38:30.106Z,37.29
2023-03-22T16:43:37.374Z,37.37
2023-03-22T16:48:44.583Z,37.37
2023-03-22T16:53:51.762Z,37.40
2023-03-22T16:58:58.928Z,37.25
2023-03-22T17:04:06.145Z,37.30
2023-03-22T17:09:13.309Z,37.22
2023-03-22T17:14:20.508Z,37.19
2023-03-22T17:19:27.892Z,37.23
2023-03-22T17:24:35.025Z,37.16
2023-03-22T17:29:42.252Z,37.08
2023-03-22T17:34:49.566Z,37.16
2023-03-22T17:40:20.765Z,37.38
2023-03-22T17:45:06.832Z,37.58
2023-03-22T17:50:11.689Z,37.91
2023-03-22T17:55:27.750Z,38.03
2023-03-22T18:00:26.864Z,38.31
2023-03-22T18:05:34.507Z,38.42
2023-03-22T18:10:42.372Z,38.48
2023-03-22T18:15:49.412Z,38.58
2023-03-22T18:20:57.767Z,38.78
2023-03-22T18:26:05.141Z,38.75
2023-03-22T18:31:12.198Z,38.94
2023-03-22T18:36:19.798Z,38.93
2023-03-22T18:46:35.441Z,39.16
2023-03-22T18:52:23.336Z,39.12
2023-03-22T18:56:52.011Z,39.08
2023-03-22T19:02:20.624Z,39.73
2023-03-22T19:07:40.739Z,39.62
2023-03-22T19:12:30.567Z,39.41
2023-03-22T19:17:38.285Z,39.38
2023-03-22T19:22:46.024Z,39.56
2023-03-22T19:27:54.338Z,39.61
2023-03-22T19:33:24.302Z,39.45
2023-03-22T19:38:09.684Z,39.25
2023-03-22T19:43:17.338Z,39.33
2023-03-22T19:48:25.174Z,39.27
2023-03-22T19:58:40.119Z,38.90
2023-03-22T20:03:47.585Z,38.99
2023-03-22T20:08:55.512Z,38.41
2023-03-22T20:14:03.172Z,38.23
2023-03-22T20:19:10.899Z,38.12
2023-03-22T20:24:18.524Z,37.95
2023-03-22T20:29:26.220Z,37.86
2023-03-22T20:34:33.833Z,37.77
2023-03-22T20:39:41.260Z,37.64
2023-03-22T20:44:48.649Z,37.59
2023-03-22T20:49:56.264Z,37.64
2023-03-22T20:55:04.511Z,37.40
2023-03-22T21:00:11.689Z,37.25
2023-03-22T21:05:19.206Z,37.04
2023-03-22T21:10:26.635Z,36.84
2023-03-22T21:15:33.834Z,36.56
2023-03-22T21:20:41.084Z,36.39
2023-03-22T21:25:48.269Z,36.28
2023-03-22T21:30:55.457Z,36.18
2023-03-22T21:36:02.682Z,36.03
2023-03-22T21:41:09.923Z,35.83
2023-03-22T21:46:17.143Z,35.74
2023-03-22T21:51:24.392Z,35.53
2023-03-22T21:56:31.617Z,35.41
2023-03-22T22:01:38.870Z,35.37
2023-03-22T22:06:46.172Z,35.24
2023-03-22T22:11:53.452Z,35.18
2023-03-22T22:17:00.635Z,35.07
2023-03-22T22:22:07.913Z,34.94
2023-03-22T22:27:15.184Z,34.90
2023-03-22T22:32:22.463Z,34.75
2023-03-22T22:37:29.679Z,34.61
2023-03-22T22:42:36.947Z,34.55
2023-03-22T22:47:44.133Z,34.45
2023-03-22T22:52:51.410Z,34.44
2023-03-22T22:57:58.613Z,34.33
2023-03-22T23:03:05.873Z,34.24
2023-03-22T23:08:13.095Z,34.18
2023-03-22T23:13:20.373Z,34.06
2023-03-22T23:18:27.523Z,33.97
2023-03-22T23:23:34.730Z,33.75
2023-03-22T23:28:42.017Z,33.62
2023-03-22T23:33:51.199Z,33.51
2023-03-22T23:38:58.927Z,33.74
2023-03-22T23:44:11.248Z,33.76
2023-03-22T23:49:18.631Z,33.75
2023-03-22T23:55:11.821Z,33.81
2023-03-22T23:59:42.690Z,33.92
